sensor_id;sensor_type;location;lat;lon;timestamp;temperature;humidity
52451;DHT22;38366;53.176;6.540;2022-12-04T00:01:04;1.10;99.90
52451;DHT22;38366;53.176;6.540;2022-12-04T00:03:30;1.10;99.90
52451;DHT22;38366;53.176;6.540;2022-12-04T00:06:10;1.50;99.90
52451;DHT22;38366;53.176;6.540;2022-12-04T00:08:36;1.10;99.90
52451;DHT22;38366;53.176;6.540;2022-12-04T00:11:02;1.10;99.90
52451;DHT22;38366;53.176;6.540;2022-12-04T00:13:28;1.10;99.90
52451;DHT22;38366;53.176;6.540;2022-12-04T00:15:53;1.10;99.90
52451;DHT22;38366;53.176;6.540;2022-12-04T00:18:19;1.10;99.90
52451;DHT22;38366;53.176;6.540;2022-12-04T00:20:44;2.60;99.90
52451;DHT22;38366;53.176;6.540;2022-12-04T00:23:10;2.80;99.90
52451;DHT22;38366;53.176;6.540;2022-12-04T00:25:36;2.90;99.90
52451;DHT22;38366;53.176;6.540;2022-12-04T00:28:02;0.80;99.90
52451;DHT22;38366;53.176;6.540;2022-12-04T00:30:29;1.10;99.90
52451;DHT22;38366;53.176;6.540;2022-12-04T00:32:55;2.50;99.90
52451;DHT22;38366;53.176;6.540;2022-12-04T00:35:21;1.00;99.90
52451;DHT22;38366;53.176;6.540;2022-12-04T00:37:46;2.70;99.90
52451;DHT22;38366;53.176;6.540;2022-12-04T00:40:12;1.00;99.90
52451;DHT22;38366;53.176;6.540;2022-12-04T00:42:37;1.00;99.90
52451;DHT22;38366;53.176;6.540;2022-12-04T00:45:03;0.90;99.90
52451;DHT22;38366;53.176;6.540;2022-12-04T00:47:29;1.00;99.90
52451;DHT22;38366;53.176;6.540;2022-12-04T00:49:55;0.90;99.90
52451;DHT22;38366;53.176;6.540;2022-12-04T00:52:20;1.60;99.90
52451;DHT22;38366;53.176;6.540;2022-12-04T00:54:46;1.00;99.90
52451;DHT22;38366;53.176;6.540;2022-12-04T00:57:12;0.90;99.90
52451;DHT22;38366;53.176;6.540;2022-12-04T00:59:37;0.90;99.90
52451;DHT22;38366;53.176;6.540;2022-12-04T01:02:03;2.00;99.90
52451;DHT22;38366;53.176;6.540;2022-12-04T01:04:29;2.20;99.90
52451;DHT22;38366;53.176;6.540;2022-12-04T01:06:54;2.20;99.90
52451;DHT22;38366;53.176;6.540;2022-12-04T01:09:20;1.60;99.90
52451;DHT22;38366;53.176;6.540;2022-12-04T01:11:45;3.00;99.90
52451;DHT22;38366;53.176;6.540;2022-12-04T01:14:11;1.10;99.90
52451;DHT22;38366;53.176;6.540;2022-12-04T01:16:38;2.60;99.90
52451;DHT22;38366;53.176;6.540;2022-12-04T01:19:04;0.80;99.90
52451;DHT22;38366;53.176;6.540;2022-12-04T01:21:30;0.80;99.90
52451;DHT22;38366;53.176;6.540;2022-12-04T01:23:56;2.80;99.90
52451;DHT22;38366;53.176;6.540;2022-12-04T01:26:23;2.50;99.90
52451;DHT22;38366;53.176;6.540;2022-12-04T01:28:48;2.70;99.90
52451;DHT22;38366;53.176;6.540;2022-12-04T01:31:15;0.60;99.90
52451;DHT22;38366;53.176;6.540;2022-12-04T01:33:41;1.60;99.90
52451;DHT22;38366;53.176;6.540;2022-12-04T01:36:08;1.50;99.90
52451;DHT22;38366;53.176;6.540;2022-12-04T01:38:34;0.60;99.90
52451;DHT22;38366;53.176;6.540;2022-12-04T01:41:00;0.60;99.90
52451;DHT22;38366;53.176;6.540;2022-12-04T01:43:26;1.90;99.90
52451;DHT22;38366;53.176;6.540;2022-12-04T01:45:53;2.10;99.90
52451;DHT22;38366;53.176;6.540;2022-12-04T01:48:26;0.60;99.90
52451;DHT22;38366;53.176;6.540;2022-12-04T01:50:55;0.60;99.90
52451;DHT22;38366;53.176;6.540;2022-12-04T01:53:22;1.70;99.90
52451;DHT22;38366;53.176;6.540;2022-12-04T01:55:48;0.50;99.90
52451;DHT22;38366;53.176;6.540;2022-12-04T01:58:14;2.30;99.90
52451;DHT22;38366;53.176;6.540;2022-12-04T02:00:41;1.10;99.90
52451;DHT22;38366;53.176;6.540;2022-12-04T02:03:07;1.40;99.90
52451;DHT22;38366;53.176;6.540;2022-12-04T02:05:33;2.50;99.90
52451;DHT22;38366;53.176;6.540;2022-12-04T02:07:59;2.20;99.90
52451;DHT22;38366;53.176;6.540;2022-12-04T02:10:34;2.10;99.90
52451;DHT22;38366;53.176;6.540;2022-12-04T02:15:36;0.50;99.90
52451;DHT22;38366;53.176;6.540;2022-12-04T02:20:50;0.50;99.90
52451;DHT22;38366;53.176;6.540;2022-12-04T02:30:58;2.50;99.90
52451;DHT22;38366;53.176;6.540;2022-12-04T02:33:26;0.40;99.90
52451;DHT22;38366;53.176;6.540;2022-12-04T02:35:55;0.40;99.90
52451;DHT22;38366;53.176;6.540;2022-12-04T02:41:18;0.40;99.90
52451;DHT22;38366;53.176;6.540;2022-12-04T02:43:47;0.50;99.90
52451;DHT22;38366;53.176;6.540;2022-12-04T02:46:18;1.60;99.90
52451;DHT22;38366;53.176;6.540;2022-12-04T02:48:46;0.50;99.90
52451;DHT22;38366;53.176;6.540;2022-12-04T02:51:13;0.50;99.90
52451;DHT22;38366;53.176;6.540;2022-12-04T02:53:40;2.50;99.90
52451;DHT22;38366;53.176;6.540;2022-12-04T02:56:08;0.40;99.90
52451;DHT22;38366;53.176;6.540;2022-12-04T02:58:37;0.40;99.90
52451;DHT22;38366;53.176;6.540;2022-12-04T03:01:05;0.40;99.90
52451;DHT22;38366;53.176;6.540;2022-12-04T03:03:45;0.40;99.90
52451;DHT22;38366;53.176;6.540;2022-12-04T03:06:13;0.40;99.90
52451;DHT22;38366;53.176;6.540;2022-12-04T03:08:41;0.40;99.90
52451;DHT22;38366;53.176;6.540;2022-12-04T03:11:09;0.30;99.90
52451;DHT22;38366;53.176;6.540;2022-12-04T03:13:37;2.30;99.90
52451;DHT22;38366;53.176;6.540;2022-12-04T03:16:05;0.40;99.90
52451;DHT22;38366;53.176;6.540;2022-12-04T03:18:33;0.40;99.90
52451;DHT22;38366;53.176;6.540;2022-12-04T03:21:20;0.40;99.90
52451;DHT22;38366;53.176;6.540;2022-12-04T03:23:47;0.40;99.90
52451;DHT22;38366;53.176;6.540;2022-12-04T03:26:28;0.30;99.90
52451;DHT22;38366;53.176;6.540;2022-12-04T03:28:57;0.30;99.90
52451;DHT22;38366;53.176;6.540;2022-12-04T03:34:31;0.40;99.90
52451;DHT22;38366;53.176;6.540;2022-12-04T03:37:00;1.80;99.90
52451;DHT22;38366;53.176;6.540;2022-12-04T03:39:34;0.30;99.90
52451;DHT22;38366;53.176;6.540;2022-12-04T03:42:04;0.30;99.90
52451;DHT22;38366;53.176;6.540;2022-12-04T03:44:32;0.30;99.90
52451;DHT22;38366;53.176;6.540;2022-12-04T03:47:05;1.70;99.90
52451;DHT22;38366;53.176;6.540;2022-12-04T03:49:49;0.40;99.90
52451;DHT22;38366;53.176;6.540;2022-12-04T03:52:20;0.30;99.90
52451;DHT22;38366;53.176;6.540;2022-12-04T03:54:58;1.60;99.90
52451;DHT22;38366;53.176;6.540;2022-12-04T03:57:26;0.30;99.90
52451;DHT22;38366;53.176;6.540;2022-12-04T03:59:57;0.80;99.90
52451;DHT22;38366;53.176;6.540;2022-12-04T04:02:24;0.30;99.90
52451;DHT22;38366;53.176;6.540;2022-12-04T04:04:53;0.30;99.90
52451;DHT22;38366;53.176;6.540;2022-12-04T04:07:23;2.20;99.90
52451;DHT22;38366;53.176;6.540;2022-12-04T04:09:52;0.20;99.90
52451;DHT22;38366;53.176;6.540;2022-12-04T04:12:20;0.20;99.90
52451;DHT22;38366;53.176;6.540;2022-12-04T04:14:52;0.40;99.90
52451;DHT22;38366;53.176;6.540;2022-12-04T04:17:40;0.20;99.90
52451;DHT22;38366;53.176;6.540;2022-12-04T04:20:36;0.30;99.90
52451;DHT22;38366;53.176;6.540;2022-12-04T04:23:21;0.20;99.90
52451;DHT22;38366;53.176;6.540;2022-12-04T04:26:06;0.20;99.90
52451;DHT22;38366;53.176;6.540;2022-12-04T04:28:39;1.50;99.90
52451;DHT22;38366;53.176;6.540;2022-12-04T04:33:58;0.20;99.90
52451;DHT22;38366;53.176;6.540;2022-12-04T04:39:32;0.20;99.90
52451;DHT22;38366;53.176;6.540;2022-12-04T04:42:09;0.20;99.90
52451;DHT22;38366;53.176;6.540;2022-12-04T04:44:41;0.20;99.90
52451;DHT22;38366;53.176;6.540;2022-12-04T04:47:11;0.20;99.90
52451;DHT22;38366;53.176;6.540;2022-12-04T04:49:38;2.10;99.90
52451;DHT22;38366;53.176;6.540;2022-12-04T04:52:05;1.70;99.90
52451;DHT22;38366;53.176;6.540;2022-12-04T04:54:30;0.10;99.90
52451;DHT22;38366;53.176;6.540;2022-12-04T04:56:58;0.20;99.90
52451;DHT22;38366;53.176;6.540;2022-12-04T04:59:23;0.20;99.90
52451;DHT22;38366;53.176;6.540;2022-12-04T05:01:49;0.60;99.90
52451;DHT22;38366;53.176;6.540;2022-12-04T05:04:14;1.40;99.90
52451;DHT22;38366;53.176;6.540;2022-12-04T05:06:40;0.20;99.90
52451;DHT22;38366;53.176;6.540;2022-12-04T05:09:06;0.20;99.90
52451;DHT22;38366;53.176;6.540;2022-12-04T05:11:31;0.20;99.90
52451;DHT22;38366;53.176;6.540;2022-12-04T05:13:57;2.10;99.90
52451;DHT22;38366;53.176;6.540;2022-12-04T05:16:22;1.20;99.90
52451;DHT22;38366;53.176;6.540;2022-12-04T05:18:48;0.20;99.90
52451;DHT22;38366;53.176;6.540;2022-12-04T05:21:33;1.70;99.90
52451;DHT22;38366;53.176;6.540;2022-12-04T05:23:58;0.60;99.90
52451;DHT22;38366;53.176;6.540;2022-12-04T05:26:24;-0.10;99.90
52451;DHT22;38366;53.176;6.540;2022-12-04T05:28:50;0.20;99.90
52451;DHT22;38366;53.176;6.540;2022-12-04T05:31:16;1.40;99.90
52451;DHT22;38366;53.176;6.540;2022-12-04T05:33:41;0.70;99.90
52451;DHT22;38366;53.176;6.540;2022-12-04T05:36:08;0.20;99.90
52451;DHT22;38366;53.176;6.540;2022-12-04T05:38:34;0.30;99.90
52451;DHT22;38366;53.176;6.540;2022-12-04T05:41:01;1.90;99.90
52451;DHT22;38366;53.176;6.540;2022-12-04T05:43:27;0.20;99.90
52451;DHT22;38366;53.176;6.540;2022-12-04T05:45:52;0.40;99.90
52451;DHT22;38366;53.176;6.540;2022-12-04T05:48:18;1.90;99.90
52451;DHT22;38366;53.176;6.540;2022-12-04T05:50:43;0.10;99.90
52451;DHT22;38366;53.176;6.540;2022-12-04T05:53:09;1.40;99.90
52451;DHT22;38366;53.176;6.540;2022-12-04T05:55:35;0.20;99.90
52451;DHT22;38366;53.176;6.540;2022-12-04T05:58:00;0.20;99.90
52451;DHT22;38366;53.176;6.540;2022-12-04T06:00:26;2.00;99.90
52451;DHT22;38366;53.176;6.540;2022-12-04T06:02:52;1.80;99.90
52451;DHT22;38366;53.176;6.540;2022-12-04T06:05:18;1.50;99.90
52451;DHT22;38366;53.176;6.540;2022-12-04T06:07:43;0.30;99.90
52451;DHT22;38366;53.176;6.540;2022-12-04T06:10:09;1.70;99.90
52451;DHT22;38366;53.176;6.540;2022-12-04T06:12:34;0.40;99.90
52451;DHT22;38366;53.176;6.540;2022-12-04T06:15:00;0.40;99.90
52451;DHT22;38366;53.176;6.540;2022-12-04T06:17:26;1.30;99.90
52451;DHT22;38366;53.176;6.540;2022-12-04T06:19:51;0.40;99.90
52451;DHT22;38366;53.176;6.540;2022-12-04T06:22:17;0.40;99.90
52451;DHT22;38366;53.176;6.540;2022-12-04T06:24:43;1.80;99.90
52451;DHT22;38366;53.176;6.540;2022-12-04T06:27:08;0.40;99.90
52451;DHT22;38366;53.176;6.540;2022-12-04T06:29:34;0.40;99.90
52451;DHT22;38366;53.176;6.540;2022-12-04T06:32:00;0.40;99.90
52451;DHT22;38366;53.176;6.540;2022-12-04T06:34:25;0.30;99.90
52451;DHT22;38366;53.176;6.540;2022-12-04T06:36:51;0.50;99.90
52451;DHT22;38366;53.176;6.540;2022-12-04T06:39:16;0.80;99.90
52451;DHT22;38366;53.176;6.540;2022-12-04T06:41:42;0.50;99.90
52451;DHT22;38366;53.176;6.540;2022-12-04T06:44:08;0.50;99.90
52451;DHT22;38366;53.176;6.540;2022-12-04T06:46:34;1.30;99.90
52451;DHT22;38366;53.176;6.540;2022-12-04T06:49:00;0.50;99.90
52451;DHT22;38366;53.176;6.540;2022-12-04T06:51:30;0.50;99.90
52451;DHT22;38366;53.176;6.540;2022-12-04T06:53:56;0.50;99.90
52451;DHT22;38366;53.176;6.540;2022-12-04T06:56:23;0.50;99.90
52451;DHT22;38366;53.176;6.540;2022-12-04T06:58:50;1.60;99.90
52451;DHT22;38366;53.176;6.540;2022-12-04T07:01:17;0.50;99.90
52451;DHT22;38366;53.176;6.540;2022-12-04T07:03:43;2.40;99.90
52451;DHT22;38366;53.176;6.540;2022-12-04T07:06:12;0.50;99.90
52451;DHT22;38366;53.176;6.540;2022-12-04T07:08:38;0.40;99.90
52451;DHT22;38366;53.176;6.540;2022-12-04T07:11:04;1.90;99.90
52451;DHT22;38366;53.176;6.540;2022-12-04T07:13:32;0.50;99.90
52451;DHT22;38366;53.176;6.540;2022-12-04T07:16:01;0.50;99.90
52451;DHT22;38366;53.176;6.540;2022-12-04T07:18:27;0.50;99.90
52451;DHT22;38366;53.176;6.540;2022-12-04T07:20:53;2.30;99.90
52451;DHT22;38366;53.176;6.540;2022-12-04T07:23:18;2.40;99.90
52451;DHT22;38366;53.176;6.540;2022-12-04T07:25:44;2.70;99.90
52451;DHT22;38366;53.176;6.540;2022-12-04T07:28:10;2.60;99.90
52451;DHT22;38366;53.176;6.540;2022-12-04T07:30:36;1.10;99.90
52451;DHT22;38366;53.176;6.540;2022-12-04T07:33:01;2.40;99.90
52451;DHT22;38366;53.176;6.540;2022-12-04T07:35:27;1.50;99.90
52451;DHT22;38366;53.176;6.540;2022-12-04T07:37:53;0.60;99.90
52451;DHT22;38366;53.176;6.540;2022-12-04T07:40:18;2.70;99.90
52451;DHT22;38366;53.176;6.540;2022-12-04T07:42:44;0.70;99.90
52451;DHT22;38366;53.176;6.540;2022-12-04T07:45:09;1.70;99.90
52451;DHT22;38366;53.176;6.540;2022-12-04T07:47:35;0.60;99.90
52451;DHT22;38366;53.176;6.540;2022-12-04T07:50:01;1.00;99.90
52451;DHT22;38366;53.176;6.540;2022-12-04T07:52:27;0.60;99.90
52451;DHT22;38366;53.176;6.540;2022-12-04T07:54:52;1.70;99.90
52451;DHT22;38366;53.176;6.540;2022-12-04T07:57:18;2.70;99.90
52451;DHT22;38366;53.176;6.540;2022-12-04T07:59:43;2.50;99.90
52451;DHT22;38366;53.176;6.540;2022-12-04T08:02:10;0.50;99.90
52451;DHT22;38366;53.176;6.540;2022-12-04T08:04:36;0.60;99.90
52451;DHT22;38366;53.176;6.540;2022-12-04T08:07:02;2.00;99.90
52451;DHT22;38366;53.176;6.540;2022-12-04T08:09:27;0.70;99.90
52451;DHT22;38366;53.176;6.540;2022-12-04T08:11:53;1.00;99.90
52451;DHT22;38366;53.176;6.540;2022-12-04T08:14:18;0.70;99.90
52451;DHT22;38366;53.176;6.540;2022-12-04T08:16:44;0.70;99.90
52451;DHT22;38366;53.176;6.540;2022-12-04T08:19:10;0.80;99.90
52451;DHT22;38366;53.176;6.540;2022-12-04T08:21:35;0.80;99.90
52451;DHT22;38366;53.176;6.540;2022-12-04T08:24:01;1.90;99.90
52451;DHT22;38366;53.176;6.540;2022-12-04T08:26:28;0.80;99.90
52451;DHT22;38366;53.176;6.540;2022-12-04T08:28:54;2.50;99.90
52451;DHT22;38366;53.176;6.540;2022-12-04T08:31:21;3.00;99.90
52451;DHT22;38366;53.176;6.540;2022-12-04T08:33:48;0.80;99.90
52451;DHT22;38366;53.176;6.540;2022-12-04T08:36:16;2.10;99.90
52451;DHT22;38366;53.176;6.540;2022-12-04T08:38:42;0.90;99.90
52451;DHT22;38366;53.176;6.540;2022-12-04T08:41:09;0.90;99.90
52451;DHT22;38366;53.176;6.540;2022-12-04T08:43:35;0.80;99.90
52451;DHT22;38366;53.176;6.540;2022-12-04T08:46:01;2.90;99.90
52451;DHT22;38366;53.176;6.540;2022-12-04T08:48:28;2.50;99.90
52451;DHT22;38366;53.176;6.540;2022-12-04T08:50:53;2.70;99.90
52451;DHT22;38366;53.176;6.540;2022-12-04T08:53:19;1.00;99.90
52451;DHT22;38366;53.176;6.540;2022-12-04T08:55:45;2.60;99.90
52451;DHT22;38366;53.176;6.540;2022-12-04T08:58:11;1.00;99.90
52451;DHT22;38366;53.176;6.540;2022-12-04T09:00:36;1.00;99.90
52451;DHT22;38366;53.176;6.540;2022-12-04T09:03:02;1.10;99.90
52451;DHT22;38366;53.176;6.540;2022-12-04T09:05:28;1.10;99.90
52451;DHT22;38366;53.176;6.540;2022-12-04T09:07:54;1.10;99.90
52451;DHT22;38366;53.176;6.540;2022-12-04T09:10:20;2.60;99.90
52451;DHT22;38366;53.176;6.540;2022-12-04T09:12:45;1.20;99.90
52451;DHT22;38366;53.176;6.540;2022-12-04T09:15:11;1.30;99.90
52451;DHT22;38366;53.176;6.540;2022-12-04T09:17:37;1.20;99.90
52451;DHT22;38366;53.176;6.540;2022-12-04T09:20:03;2.60;99.90
52451;DHT22;38366;53.176;6.540;2022-12-04T09:22:28;1.30;99.90
52451;DHT22;38366;53.176;6.540;2022-12-04T09:24:54;1.30;99.90
52451;DHT22;38366;53.176;6.540;2022-12-04T09:27:20;1.40;99.90
52451;DHT22;38366;53.176;6.540;2022-12-04T09:29:45;1.30;99.90
52451;DHT22;38366;53.176;6.540;2022-12-04T09:32:11;1.40;99.90
52451;DHT22;38366;53.176;6.540;2022-12-04T09:34:36;1.40;99.90
52451;DHT22;38366;53.176;6.540;2022-12-04T09:37:02;2.80;99.90
52451;DHT22;38366;53.176;6.540;2022-12-04T09:39:27;1.40;99.90
52451;DHT22;38366;53.176;6.540;2022-12-04T09:47:20;1.50;99.90
52451;DHT22;38366;53.176;6.540;2022-12-04T09:49:52;1.60;99.90
52451;DHT22;38366;53.176;6.540;2022-12-04T09:52:38;1.60;99.90
52451;DHT22;38366;53.176;6.540;2022-12-04T09:55:10;1.60;99.90
52451;DHT22;38366;53.176;6.540;2022-12-04T09:57:38;1.60;99.90
52451;DHT22;38366;53.176;6.540;2022-12-04T10:00:05;1.70;99.90
52451;DHT22;38366;53.176;6.540;2022-12-04T10:02:35;1.70;99.90
52451;DHT22;38366;53.176;6.540;2022-12-04T10:05:01;1.80;99.90
52451;DHT22;38366;53.176;6.540;2022-12-04T10:07:30;1.80;99.90
52451;DHT22;38366;53.176;6.540;2022-12-04T10:09:59;1.80;99.90
52451;DHT22;38366;53.176;6.540;2022-12-04T10:12:32;1.90;99.90
52451;DHT22;38366;53.176;6.540;2022-12-04T10:15:18;1.90;99.90
52451;DHT22;38366;53.176;6.540;2022-12-04T10:20:29;2.00;99.90
52451;DHT22;38366;53.176;6.540;2022-12-04T10:23:05;2.00;99.90
52451;DHT22;38366;53.176;6.540;2022-12-04T10:25:33;2.00;99.90
52451;DHT22;38366;53.176;6.540;2022-12-04T10:30:45;2.00;99.90
52451;DHT22;38366;53.176;6.540;2022-12-04T10:35:43;2.10;99.90
52451;DHT22;38366;53.176;6.540;2022-12-04T10:38:22;2.10;99.90
52451;DHT22;38366;53.176;6.540;2022-12-04T10:40:51;2.10;99.90
52451;DHT22;38366;53.176;6.540;2022-12-04T10:45:44;3.00;99.90
52451;DHT22;38366;53.176;6.540;2022-12-04T10:48:17;2.10;99.90
52451;DHT22;38366;53.176;6.540;2022-12-04T10:50:46;2.20;99.90
52451;DHT22;38366;53.176;6.540;2022-12-04T10:53:11;2.20;99.90
52451;DHT22;38366;53.176;6.540;2022-12-04T10:55:39;2.20;99.90
52451;DHT22;38366;53.176;6.540;2022-12-04T10:58:13;2.20;99.90
52451;DHT22;38366;53.176;6.540;2022-12-04T11:00:39;2.20;99.90
52451;DHT22;38366;53.176;6.540;2022-12-04T11:03:18;3.00;99.90
52451;DHT22;38366;53.176;6.540;2022-12-04T11:05:53;2.30;99.90
52451;DHT22;38366;53.176;6.540;2022-12-04T11:08:23;2.30;99.90
52451;DHT22;38366;53.176;6.540;2022-12-04T11:11:04;2.30;99.90
52451;DHT22;38366;53.176;6.540;2022-12-04T11:13:30;2.30;99.90
52451;DHT22;38366;53.176;6.540;2022-12-04T11:15:56;2.40;99.90
52451;DHT22;38366;53.176;6.540;2022-12-04T11:20:49;2.40;99.90
52451;DHT22;38366;53.176;6.540;2022-12-04T11:23:16;2.40;99.90
52451;DHT22;38366;53.176;6.540;2022-12-04T11:25:47;1.90;99.90
52451;DHT22;38366;53.176;6.540;2022-12-04T11:28:20;2.40;99.90
52451;DHT22;38366;53.176;6.540;2022-12-04T11:30:48;2.40;99.90
52451;DHT22;38366;53.176;6.540;2022-12-04T11:33:19;2.40;99.90
52451;DHT22;38366;53.176;6.540;2022-12-04T11:35:50;2.40;99.90
52451;DHT22;38366;53.176;6.540;2022-12-04T11:38:16;2.40;99.90
52451;DHT22;38366;53.176;6.540;2022-12-04T11:40:46;2.40;99.90
52451;DHT22;38366;53.176;6.540;2022-12-04T11:43:13;2.40;99.90
52451;DHT22;38366;53.176;6.540;2022-12-04T11:45:39;2.40;99.90
52451;DHT22;38366;53.176;6.540;2022-12-04T11:48:15;2.40;99.90
52451;DHT22;38366;53.176;6.540;2022-12-04T11:50:46;2.40;99.90
52451;DHT22;38366;53.176;6.540;2022-12-04T11:53:26;2.40;99.90
52451;DHT22;38366;53.176;6.540;2022-12-04T12:00:55;3.30;99.90
52451;DHT22;38366;53.176;6.540;2022-12-04T12:03:26;2.50;99.90
52451;DHT22;38366;53.176;6.540;2022-12-04T12:21:07;2.50;99.90
52451;DHT22;38366;53.176;6.540;2022-12-04T12:26:13;2.50;99.90
52451;DHT22;38366;53.176;6.540;2022-12-04T12:34:09;2.60;99.90
52451;DHT22;38366;53.176;6.540;2022-12-04T12:36:38;2.60;99.90
52451;DHT22;38366;53.176;6.540;2022-12-04T12:39:48;2.60;99.90
52451;DHT22;38366;53.176;6.540;2022-12-04T12:41:57;2.60;99.90
52451;DHT22;38366;53.176;6.540;2022-12-04T12:47:12;2.60;99.90
52451;DHT22;38366;53.176;6.540;2022-12-04T12:49:54;2.60;99.90
52451;DHT22;38366;53.176;6.540;2022-12-04T12:54:54;2.60;99.90
52451;DHT22;38366;53.176;6.540;2022-12-04T12:57:29;2.60;99.90
52451;DHT22;38366;53.176;6.540;2022-12-04T12:59:59;2.60;99.90
52451;DHT22;38366;53.176;6.540;2022-12-04T13:05:03;2.50;99.90
52451;DHT22;38366;53.176;6.540;2022-12-04T13:10:06;2.60;99.90
52451;DHT22;38366;53.176;6.540;2022-12-04T13:15:19;2.60;99.90
52451;DHT22;38366;53.176;6.540;2022-12-04T13:17:46;2.70;99.90
52451;DHT22;38366;53.176;6.540;2022-12-04T13:20:17;2.70;99.90
52451;DHT22;38366;53.176;6.540;2022-12-04T13:23:10;2.70;99.90
52451;DHT22;38366;53.176;6.540;2022-12-04T13:25:50;2.70;99.90
52451;DHT22;38366;53.176;6.540;2022-12-04T13:28:20;2.50;99.90
52451;DHT22;38366;53.176;6.540;2022-12-04T13:38:22;2.80;99.90
52451;DHT22;38366;53.176;6.540;2022-12-04T13:40:56;2.80;99.90
52451;DHT22;38366;53.176;6.540;2022-12-04T13:45:49;2.80;99.90
52451;DHT22;38366;53.176;6.540;2022-12-04T13:48:25;2.80;99.90
52451;DHT22;38366;53.176;6.540;2022-12-04T13:50:59;3.90;99.90
52451;DHT22;38366;53.176;6.540;2022-12-04T13:53:35;2.80;99.90
52451;DHT22;38366;53.176;6.540;2022-12-04T13:56:04;2.80;99.90
52451;DHT22;38366;53.176;6.540;2022-12-04T13:58:31;3.00;99.90
52451;DHT22;38366;53.176;6.540;2022-12-04T14:01:02;2.80;99.90
52451;DHT22;38366;53.176;6.540;2022-12-04T14:03:31;2.80;99.90
52451;DHT22;38366;53.176;6.540;2022-12-04T14:05:59;2.80;99.90
52451;DHT22;38366;53.176;6.540;2022-12-04T14:08:33;2.80;99.90
52451;DHT22;38366;53.176;6.540;2022-12-04T14:11:01;2.80;99.90
52451;DHT22;38366;53.176;6.540;2022-12-04T14:13:29;4.20;99.90
52451;DHT22;38366;53.176;6.540;2022-12-04T14:16:04;2.80;99.90
52451;DHT22;38366;53.176;6.540;2022-12-04T14:18:31;2.80;99.90
52451;DHT22;38366;53.176;6.540;2022-12-04T14:21:01;2.80;99.90
52451;DHT22;38366;53.176;6.540;2022-12-04T14:23:33;2.80;99.90
52451;DHT22;38366;53.176;6.540;2022-12-04T14:25:58;2.80;99.90
52451;DHT22;38366;53.176;6.540;2022-12-04T14:33:31;2.80;99.90
52451;DHT22;38366;53.176;6.540;2022-12-04T14:36:00;3.30;99.90
52451;DHT22;38366;53.176;6.540;2022-12-04T14:38:26;3.00;99.90
52451;DHT22;38366;53.176;6.540;2022-12-04T14:40:53;2.70;99.90
52451;DHT22;38366;53.176;6.540;2022-12-04T14:43:29;2.70;99.90
52451;DHT22;38366;53.176;6.540;2022-12-04T14:51:29;2.70;99.90
52451;DHT22;38366;53.176;6.540;2022-12-04T14:54:03;2.60;99.90
52451;DHT22;38366;53.176;6.540;2022-12-04T14:59:05;2.60;99.90
52451;DHT22;38366;53.176;6.540;2022-12-04T15:01:40;2.60;99.90
52451;DHT22;38366;53.176;6.540;2022-12-04T15:04:10;2.60;99.90
52451;DHT22;38366;53.176;6.540;2022-12-04T15:06:37;2.60;99.90
52451;DHT22;38366;53.176;6.540;2022-12-04T15:09:03;2.60;99.90
52451;DHT22;38366;53.176;6.540;2022-12-04T15:11:56;3.30;99.90
52451;DHT22;38366;53.176;6.540;2022-12-04T15:14:42;2.60;99.90
52451;DHT22;38366;53.176;6.540;2022-12-04T15:17:08;2.60;99.90
52451;DHT22;38366;53.176;6.540;2022-12-04T15:19:34;2.80;99.90
52451;DHT22;38366;53.176;6.540;2022-12-04T15:22:01;2.60;99.90
52451;DHT22;38366;53.176;6.540;2022-12-04T15:24:27;2.60;99.90
52451;DHT22;38366;53.176;6.540;2022-12-04T15:26:52;2.60;99.90
52451;DHT22;38366;53.176;6.540;2022-12-04T15:29:19;2.60;99.90
52451;DHT22;38366;53.176;6.540;2022-12-04T15:31:46;2.70;99.90
52451;DHT22;38366;53.176;6.540;2022-12-04T15:34:19;2.70;99.90
52451;DHT22;38366;53.176;6.540;2022-12-04T15:39:18;2.70;99.90
52451;DHT22;38366;53.176;6.540;2022-12-04T15:41:44;2.70;99.90
52451;DHT22;38366;53.176;6.540;2022-12-04T15:46:47;2.70;99.90
52451;DHT22;38366;53.176;6.540;2022-12-04T15:49:17;2.80;99.90
52451;DHT22;38366;53.176;6.540;2022-12-04T15:51:43;2.80;99.90
52451;DHT22;38366;53.176;6.540;2022-12-04T15:54:14;2.80;99.90
52451;DHT22;38366;53.176;6.540;2022-12-04T15:56:42;3.50;99.90
52451;DHT22;38366;53.176;6.540;2022-12-04T15:59:12;4.40;99.90
52451;DHT22;38366;53.176;6.540;2022-12-04T16:01:40;2.90;99.90
52451;DHT22;38366;53.176;6.540;2022-12-04T16:04:17;2.90;99.90
52451;DHT22;38366;53.176;6.540;2022-12-04T16:06:46;2.90;99.90
52451;DHT22;38366;53.176;6.540;2022-12-04T16:11:41;2.90;99.90
52451;DHT22;38366;53.176;6.540;2022-12-04T16:16:37;2.90;99.90
52451;DHT22;38366;53.176;6.540;2022-12-04T16:21:47;2.90;99.90
52451;DHT22;38366;53.176;6.540;2022-12-04T16:24:13;3.20;99.90
52451;DHT22;38366;53.176;6.540;2022-12-04T16:26:39;3.00;99.90
52451;DHT22;38366;53.176;6.540;2022-12-04T16:29:05;3.00;99.90
52451;DHT22;38366;53.176;6.540;2022-12-04T16:31:30;4.30;99.90
52451;DHT22;38366;53.176;6.540;2022-12-04T16:33:56;3.20;99.90
52451;DHT22;38366;53.176;6.540;2022-12-04T16:36:22;3.00;99.90
52451;DHT22;38366;53.176;6.540;2022-12-04T16:38:47;3.00;99.90
52451;DHT22;38366;53.176;6.540;2022-12-04T16:41:14;3.50;99.90
52451;DHT22;38366;53.176;6.540;2022-12-04T16:43:40;3.00;99.90
52451;DHT22;38366;53.176;6.540;2022-12-04T16:46:08;3.00;99.90
52451;DHT22;38366;53.176;6.540;2022-12-04T16:48:36;3.30;99.90
52451;DHT22;38366;53.176;6.540;2022-12-04T16:51:02;3.10;99.90
52451;DHT22;38366;53.176;6.540;2022-12-04T16:53:28;3.10;99.90
52451;DHT22;38366;53.176;6.540;2022-12-04T16:55:53;3.10;99.90
52451;DHT22;38366;53.176;6.540;2022-12-04T16:58:19;3.10;99.90
52451;DHT22;38366;53.176;6.540;2022-12-04T17:00:52;4.70;99.90
52451;DHT22;38366;53.176;6.540;2022-12-04T17:03:28;3.80;99.90
52451;DHT22;38366;53.176;6.540;2022-12-04T17:05:54;3.10;99.90
52451;DHT22;38366;53.176;6.540;2022-12-04T17:08:20;3.90;99.90
52451;DHT22;38366;53.176;6.540;2022-12-04T17:10:46;3.20;99.90
52451;DHT22;38366;53.176;6.540;2022-12-04T17:13:12;4.10;99.90
52451;DHT22;38366;53.176;6.540;2022-12-04T17:15:37;3.20;99.90
52451;DHT22;38366;53.176;6.540;2022-12-04T17:18:03;3.20;99.90
52451;DHT22;38366;53.176;6.540;2022-12-04T17:20:29;3.20;99.90
52451;DHT22;38366;53.176;6.540;2022-12-04T17:22:56;3.20;99.90
52451;DHT22;38366;53.176;6.540;2022-12-04T17:25:21;3.30;99.90
52451;DHT22;38366;53.176;6.540;2022-12-04T17:27:47;3.30;99.90
52451;DHT22;38366;53.176;6.540;2022-12-04T17:30:13;3.30;99.90
52451;DHT22;38366;53.176;6.540;2022-12-04T17:32:38;3.30;99.90
52451;DHT22;38366;53.176;6.540;2022-12-04T17:35:04;3.40;99.90
52451;DHT22;38366;53.176;6.540;2022-12-04T17:37:31;3.40;99.90
52451;DHT22;38366;53.176;6.540;2022-12-04T17:39:56;3.20;99.90
52451;DHT22;38366;53.176;6.540;2022-12-04T17:42:22;3.40;99.90
52451;DHT22;38366;53.176;6.540;2022-12-04T17:44:48;3.40;99.90
52451;DHT22;38366;53.176;6.540;2022-12-04T17:47:13;3.40;99.90
52451;DHT22;38366;53.176;6.540;2022-12-04T17:49:39;3.40;99.90
52451;DHT22;38366;53.176;6.540;2022-12-04T17:52:05;3.80;99.90